createdAt,value
2022-12-31T00:01:05.723Z,89.20
2022-12-31T00:03:13.454Z,89.50
2022-12-31T00:05:21.074Z,89.90
2022-12-31T00:07:27.940Z,90.50
2022-12-31T00:09:35.113Z,90.90
2022-12-31T00:11:43.118Z,91.40
2022-12-31T00:13:52.857Z,91.80
2022-12-31T00:16:11.989Z,91.90
2022-12-31T00:18:19.654Z,92.00
2022-12-31T00:20:26.537Z,91.80
2022-12-31T00:22:33.719Z,91.70
2022-12-31T00:24:40.589Z,91.40
2022-12-31T00:26:47.823Z,91.00
2022-12-31T00:28:57.874Z,91.00
2022-12-31T00:31:10.209Z,90.40
2022-12-31T00:33:17.406Z,90.30
2022-12-31T00:35:28.684Z,90.50
2022-12-31T00:37:35.968Z,90.10
2022-12-31T00:39:42.841Z,89.80
2022-12-31T00:41:49.973Z,89.40
2022-12-31T00:43:59.003Z,88.30
2022-12-31T00:46:07.255Z,88.00
2022-12-31T00:48:14.234Z,86.30
2022-12-31T00:50:21.672Z,85.40
2022-12-31T00:52:28.644Z,85.60
2022-12-31T00:54:35.826Z,85.90
2022-12-31T00:56:42.853Z,84.60
2022-12-31T00:58:50.649Z,84.80
2022-12-31T01:00:59.698Z,84.90
2022-12-31T01:03:07.187Z,84.70
2022-12-31T01:05:14.191Z,84.60
2022-12-31T01:07:21.164Z,83.80
2022-12-31T01:09:28.099Z,83.40
2022-12-31T01:11:34.152Z,83.20
2022-12-31T01:13:41.124Z,83.20
2022-12-31T01:15:48.508Z,83.20
2022-12-31T01:17:57.228Z,82.50
2022-12-31T01:20:04.362Z,81.30
2022-12-31T01:22:11.335Z,81.80
2022-12-31T01:24:18.981Z,81.30
2022-12-31T01:26:26.209Z,80.80
2022-12-31T01:28:33.602Z,80.90
2022-12-31T01:30:42.957Z,79.70
2022-12-31T01:32:50.266Z,79.80
2022-12-31T01:34:58.919Z,79.10
2022-12-31T01:37:06.060Z,78.20
2022-12-31T01:39:14.167Z,78.50
2022-12-31T01:41:24.194Z,77.60
2022-12-31T01:43:51.522Z,76.90
2022-12-31T01:45:58.571Z,75.40
2022-12-31T01:48:05.777Z,75.40
2022-12-31T01:50:19.470Z,74.00
2022-12-31T01:52:30.909Z,73.20
2022-12-31T01:54:42.542Z,72.20
2022-12-31T01:56:53.761Z,71.80
2022-12-31T01:59:01.651Z,71.00
2022-12-31T02:01:11.122Z,72.20
2022-12-31T02:03:18.701Z,70.20
2022-12-31T02:05:32.616Z,70.20
2022-12-31T02:07:39.866Z,71.00
2022-12-31T02:09:47.441Z,69.20
2022-12-31T02:11:54.724Z,68.60
2022-12-31T02:14:05.197Z,68.60
2022-12-31T02:16:20.035Z,69.40
2022-12-31T02:18:33.474Z,69.90
2022-12-31T02:21:09.485Z,68.90
2022-12-31T02:23:52.449Z,68.60
2022-12-31T02:26:29.224Z,69.20
2022-12-31T02:28:52.540Z,68.50
2022-12-31T02:31:07.878Z,69.00
2022-12-31T02:33:20.622Z,68.90
2022-12-31T02:35:36.454Z,68.50
2022-12-31T02:37:47.020Z,68.30
2022-12-31T02:39:54.528Z,68.30
2022-12-31T02:42:04.914Z,68.30
2022-12-31T02:44:26.313Z,68.10
2022-12-31T02:46:44.443Z,68.40
2022-12-31T02:48:55.798Z,68.20
2022-12-31T02:51:16.502Z,67.40
2022-12-31T02:53:43.181Z,65.70
2022-12-31T02:55:55.687Z,66.50
2022-12-31T02:58:11.277Z,66.20
2022-12-31T03:00:36.771Z,64.80
2022-12-31T03:02:47.156Z,65.00
2022-12-31T03:04:56.414Z,64.90
2022-12-31T03:07:05.386Z,63.30
2022-12-31T03:09:18.251Z,63.80
2022-12-31T03:11:38.182Z,64.00
2022-12-31T03:13:45.142Z,63.50
2022-12-31T03:15:52.155Z,63.50
2022-12-31T03:18:03.571Z,63.90
2022-12-31T03:20:27.496Z,62.30
2022-12-31T03:22:33.906Z,62.60
2022-12-31T03:24:57.369Z,61.80
2022-12-31T03:27:04.753Z,62.00
2022-12-31T03:29:11.681Z,62.50
2022-12-31T03:31:19.096Z,61.50
2022-12-31T03:33:28.603Z,62.10
2022-12-31T03:35:39.222Z,61.80
2022-12-31T03:37:47.420Z,61.40
2022-12-31T03:39:54.301Z,61.40
2022-12-31T03:42:01.171Z,62.00
2022-12-31T03:44:08.555Z,61.80
2022-12-31T03:46:15.572Z,61.60
2022-12-31T03:48:23.441Z,60.50
2022-12-31T03:50:32.453Z,60.90
2022-12-31T03:52:39.738Z,61.40
2022-12-31T03:54:46.665Z,61.10
2022-12-31T03:56:59.825Z,60.50
2022-12-31T03:59:07.041Z,60.40
2022-12-31T04:01:14.437Z,59.60
2022-12-31T04:03:21.511Z,58.90
2022-12-31T04:05:28.824Z,58.70
2022-12-31T04:07:37.695Z,58.60
2022-12-31T04:09:44.719Z,58.50
2022-12-31T04:11:51.805Z,58.90
2022-12-31T04:14:00.314Z,58.20
2022-12-31T04:16:07.418Z,58.00
2022-12-31T04:18:14.681Z,58.80
2022-12-31T04:20:21.856Z,58.10
2022-12-31T04:22:29.397Z,58.00
2022-12-31T04:24:38.164Z,57.50
2022-12-31T04:26:45.663Z,57.10
2022-12-31T04:28:52.588Z,57.50
2022-12-31T04:30:59.761Z,57.30
2022-12-31T04:33:06.683Z,56.90
2022-12-31T04:35:14.433Z,57.10
2022-12-31T04:37:21.354Z,56.90
2022-12-31T04:39:28.792Z,56.50
2022-12-31T04:41:37.867Z,56.40
2022-12-31T04:43:45.216Z,56.20
2022-12-31T04:45:52.335Z,55.30
2022-12-31T04:47:59.571Z,56.10
2022-12-31T04:50:06.700Z,55.80
2022-12-31T04:52:13.991Z,56.00
2022-12-31T04:54:20.862Z,56.00
2022-12-31T04:56:29.727Z,54.90
2022-12-31T04:58:39.128Z,55.40
2022-12-31T05:00:50.722Z,55.70
2022-12-31T05:02:57.576Z,55.70
2022-12-31T05:05:04.693Z,55.40
2022-12-31T05:07:11.565Z,55.40
2022-12-31T05:09:18.707Z,55.60
2022-12-31T05:11:25.691Z,53.40
2022-12-31T05:13:33.853Z,53.50
2022-12-31T05:15:42.811Z,53.90
2022-12-31T05:17:50.042Z,54.60
2022-12-31T05:19:56.924Z,54.60
2022-12-31T05:22:20.840Z,54.90
2022-12-31T05:24:27.869Z,54.50
2022-12-31T05:26:35.346Z,54.80
2022-12-31T05:28:42.387Z,54.10
2022-12-31T05:30:52.661Z,54.30
2022-12-31T05:32:59.569Z,53.70
2022-12-31T05:35:07.062Z,53.70
2022-12-31T05:37:14.086Z,53.40
2022-12-31T05:39:21.321Z,53.80
2022-12-31T05:41:28.140Z,54.00
2022-12-31T05:43:35.632Z,53.70
2022-12-31T05:45:42.615Z,52.60
2022-12-31T05:47:51.580Z,52.60
2022-12-31T05:49:58.451Z,53.50
2022-12-31T05:52:06.562Z,53.90
2022-12-31T05:54:13.433Z,53.70
2022-12-31T05:56:21.635Z,53.50
2022-12-31T05:58:28.511Z,53.50
2022-12-31T06:00:35.640Z,53.00
2022-12-31T06:02:42.504Z,52.70
2022-12-31T06:04:51.999Z,52.90
2022-12-31T06:06:58.924Z,51.50
2022-12-31T06:09:06.533Z,52.10
2022-12-31T06:11:13.312Z,51.10
2022-12-31T06:13:20.736Z,52.30
2022-12-31T06:15:27.498Z,50.50
2022-12-31T06:17:34.749Z,51.70
2022-12-31T06:19:41.426Z,51.30
2022-12-31T06:21:50.264Z,51.30
2022-12-31T06:23:57.140Z,51.60
2022-12-31T06:26:06.120Z,51.70
2022-12-31T06:28:19.692Z,51.80
2022-12-31T06:30:27.663Z,51.30
2022-12-31T06:32:34.525Z,51.70
2022-12-31T06:34:42.479Z,51.60
2022-12-31T06:36:51.401Z,51.30
2022-12-31T06:38:58.682Z,50.80
2022-12-31T06:41:07.402Z,50.40
2022-12-31T06:43:14.565Z,50.30
2022-12-31T06:45:21.454Z,50.70
2022-12-31T06:47:28.849Z,50.10
2022-12-31T06:49:35.700Z,50.50
2022-12-31T06:51:43.510Z,50.50
2022-12-31T06:53:53.353Z,50.20
2022-12-31T06:56:01.151Z,51.10
2022-12-31T06:58:08.621Z,50.40
2022-12-31T07:00:17.153Z,50.50
2022-12-31T07:02:56.329Z,50.30
2022-12-31T07:05:31.826Z,50.60
2022-12-31T07:07:46.024Z,49.00
2022-12-31T07:10:03.551Z,50.20
2022-12-31T07:12:34.180Z,50.20
2022-12-31T07:14:44.742Z,49.90
2022-12-31T07:17:01.775Z,49.90
2022-12-31T07:19:20.098Z,49.60
2022-12-31T07:21:35.887Z,49.90
2022-12-31T07:23:43.726Z,49.90
2022-12-31T07:25:57.771Z,50.50
2022-12-31T07:28:16.834Z,49.70
2022-12-31T07:30:26.116Z,50.10
2022-12-31T07:32:48.196Z,49.10
2022-12-31T07:35:03.053Z,49.50
2022-12-31T07:37:16.484Z,49.90
2022-12-31T07:39:31.451Z,49.70
2022-12-31T07:41:54.396Z,49.80
2022-12-31T07:44:10.387Z,49.10
2022-12-31T07:46:25.843Z,49.60
2022-12-31T07:48:33.503Z,50.10
2022-12-31T07:50:41.248Z,50.10
2022-12-31T07:52:49.354Z,49.20
2022-12-31T07:54:56.685Z,50.00
2022-12-31T07:57:05.922Z,49.80
2022-12-31T07:59:24.466Z,50.00
2022-12-31T08:01:38.737Z,48.70
2022-12-31T08:03:58.083Z,48.60
2022-12-31T08:06:14.990Z,48.80
2022-12-31T08:08:32.102Z,48.30
2022-12-31T08:10:49.525Z,49.20
2022-12-31T08:13:03.776Z,49.70
2022-12-31T08:15:18.122Z,49.30
2022-12-31T08:17:26.278Z,49.10
2022-12-31T08:19:35.222Z,50.00
2022-12-31T08:21:52.212Z,49.30
2022-12-31T08:24:07.227Z,48.10
2022-12-31T08:26:23.624Z,48.00
2022-12-31T08:28:45.760Z,48.90
2022-12-31T08:31:00.575Z,47.90
2022-12-31T08:33:15.595Z,48.80
2022-12-31T08:35:35.257Z,48.80
2022-12-31T08:37:45.867Z,48.10
2022-12-31T08:40:06.565Z,48.10
2022-12-31T08:42:22.748Z,47.80
2022-12-31T08:44:42.639Z,48.30
2022-12-31T08:46:58.676Z,47.70
2022-12-31T08:49:06.424Z,48.00
2022-12-31T08:51:20.717Z,48.60
2022-12-31T08:53:28.669Z,48.40
2022-12-31T08:55:36.262Z,49.10
2022-12-31T08:57:49.484Z,49.50
2022-12-31T09:00:05.375Z,49.10
2022-12-31T09:02:31.147Z,49.20
2022-12-31T09:04:54.350Z,49.60
2022-12-31T09:07:04.451Z,50.20
2022-12-31T09:09:19.306Z,49.70
2022-12-31T09:11:34.528Z,50.10
2022-12-31T09:13:54.867Z,50.20
2022-12-31T09:16:11.044Z,50.30
2022-12-31T09:18:18.647Z,49.50
2022-12-31T09:20:41.863Z,50.30
2022-12-31T09:22:50.523Z,50.30
2022-12-31T09:24:58.272Z,50.40
2022-12-31T09:27:12.532Z,50.90
2022-12-31T09:29:31.375Z,50.90
2022-12-31T09:31:43.651Z,51.20
2022-12-31T09:33:58.687Z,50.80
2022-12-31T09:36:09.710Z,51.10
2022-12-31T09:38:21.762Z,51.00
2022-12-31T09:41:00.611Z,50.30
2022-12-31T09:43:40.378Z,50.60
2022-12-31T09:46:12.727Z,50.90
2022-12-31T09:48:50.104Z,51.40
2022-12-31T09:51:10.529Z,51.40
2022-12-31T09:53:38.652Z,51.80
2022-12-31T09:55:52.090Z,52.00
2022-12-31T09:58:08.427Z,51.60
2022-12-31T10:00:21.250Z,51.60
2022-12-31T10:02:49.125Z,51.80
2022-12-31T10:05:06.785Z,52.20
2022-12-31T10:07:25.799Z,52.30
2022-12-31T10:09:46.292Z,52.80
2022-12-31T10:12:21.681Z,53.10
2022-12-31T10:14:47.518Z,53.10
2022-12-31T10:17:09.025Z,52.90
2022-12-31T10:19:47.275Z,53.10
2022-12-31T10:22:08.896Z,52.90
2022-12-31T10:24:37.376Z,53.40
2022-12-31T10:26:57.777Z,53.70
2022-12-31T10:29:18.422Z,53.80
2022-12-31T10:31:42.441Z,54.10
2022-12-31T10:33:58.175Z,54.00
2022-12-31T10:36:11.961Z,54.40
2022-12-31T10:38:33.018Z,54.30
2022-12-31T10:41:04.221Z,54.40
2022-12-31T10:43:48.567Z,54.70
2022-12-31T10:46:42.704Z,54.70
2022-12-31T10:49:31.761Z,54.80
2022-12-31T10:52:22.067Z,54.80
2022-12-31T10:55:01.701Z,54.90
2022-12-31T10:57:35.559Z,55.30
2022-12-31T11:00:18.428Z,55.40
2022-12-31T11:02:58.842Z,55.70
2022-12-31T11:05:41.082Z,55.60
2022-12-31T11:07:55.629Z,55.40
2022-12-31T11:10:37.994Z,55.50
2022-12-31T11:13:20.865Z,55.70
2022-12-31T11:15:56.271Z,55.50
2022-12-31T11:18:14.652Z,55.90
2022-12-31T11:20:38.999Z,56.10
2022-12-31T11:22:59.479Z,56.40
2022-12-31T11:25:31.393Z,56.20
2022-12-31T11:28:02.176Z,57.20
2022-12-31T11:30:21.799Z,57.10
2022-12-31T11:32:49.359Z,57.40
2022-12-31T11:35:23.675Z,57.40
2022-12-31T11:37:42.997Z,57.70
2022-12-31T11:40:01.950Z,57.30
2022-12-31T11:42:21.571Z,57.40
2022-12-31T11:44:43.859Z,57.60
2022-12-31T11:47:10.701Z,58.00
2022-12-31T11:49:33.656Z,58.20
2022-12-31T11:51:59.266Z,58.20
2022-12-31T11:54:34.201Z,58.50
2022-12-31T11:56:44.145Z,59.10
2022-12-31T11:58:54.145Z,58.80
2022-12-31T12:01:08.275Z,59.30
2022-12-31T12:03:15.862Z,59.60
2022-12-31T12:05:24.916Z,59.80
2022-12-31T12:07:32.959Z,60.20
2022-12-31T12:09:40.238Z,60.10
2022-12-31T12:11:47.061Z,59.70
2022-12-31T12:13:54.612Z,59.40
2022-12-31T12:16:06.493Z,59.50
2022-12-31T12:18:21.868Z,59.90
2022-12-31T12:20:34.682Z,59.80
2022-12-31T12:22:52.560Z,59.60
2022-12-31T12:25:01.179Z,59.40
2022-12-31T12:27:08.411Z,59.40
2022-12-31T12:29:18.980Z,59.50
2022-12-31T12:31:28.561Z,59.60
2022-12-31T12:33:45.419Z,59.70
2022-12-31T12:35:52.658Z,60.00
2022-12-31T12:38:09.767Z,60.10
2022-12-31T12:40:33.059Z,60.30
2022-12-31T12:42:51.223Z,60.30
2022-12-31T12:45:11.298Z,61.20
2022-12-31T12:47:21.295Z,60.70
2022-12-31T12:49:33.190Z,60.80
2022-12-31T12:52:00.899Z,60.80
2022-12-31T12:54:16.940Z,60.70
2022-12-31T12:56:33.440Z,61.00
2022-12-31T12:58:59.873Z,61.20
2022-12-31T13:01:17.041Z,61.30
2022-12-31T13:04:32.973Z,61.50
2022-12-31T13:06:35.543Z,61.70
2022-12-31T13:09:15.864Z,61.80
2022-12-31T13:11:33.901Z,62.00
2022-12-31T13:13:47.838Z,62.50
2022-12-31T13:16:01.320Z,62.60
2022-12-31T13:18:19.007Z,62.50
2022-12-31T13:20:34.832Z,62.40
2022-12-31T13:22:44.214Z,62.40
2022-12-31T13:25:00.460Z,62.50
2022-12-31T13:27:15.989Z,62.70
2022-12-31T13:29:28.340Z,62.50
2022-12-31T13:31:39.372Z,62.60
2022-12-31T13:33:50.640Z,62.50
2022-12-31T13:36:03.225Z,62.70
2022-12-31T13:38:18.571Z,62.90
2022-12-31T13:40:30.772Z,63.10
2022-12-31T13:42:46.861Z,63.40
2022-12-31T13:44:58.143Z,63.70
2022-12-31T13:47:09.777Z,63.50
2022-12-31T13:49:21.921Z,63.60
2022-12-31T13:51:37.708Z,63.60
2022-12-31T13:53:54.208Z,64.00
2022-12-31T13:56:04.560Z,63.80
2022-12-31T13:58:22.544Z,63.90
2022-12-31T14:00:33.157Z,63.90
2022-12-31T14:02:49.038Z,63.90
2022-12-31T14:05:00.320Z,63.80
2022-12-31T14:07:13.750Z,64.30
2022-12-31T14:09:25.595Z,64.00
2022-12-31T14:11:48.646Z,64.00
2022-12-31T14:14:09.140Z,64.00
2022-12-31T14:16:27.314Z,64.00
2022-12-31T14:18:41.318Z,64.10
2022-12-31T14:20:52.086Z,64.40
2022-12-31T14:23:07.163Z,64.30
2022-12-31T14:25:22.938Z,64.50
2022-12-31T14:27:33.904Z,64.70
2022-12-31T14:29:45.287Z,65.00
2022-12-31T14:32:23.654Z,64.70
2022-12-31T14:34:39.430Z,64.90
2022-12-31T14:37:00.125Z,64.90
2022-12-31T14:39:27.278Z,65.10
2022-12-31T14:41:46.512Z,65.50
2022-12-31T14:44:04.732Z,65.30
2022-12-31T14:46:19.739Z,65.30
2022-12-31T14:48:39.729Z,65.50
2022-12-31T14:50:49.622Z,65.60
2022-12-31T14:52:59.466Z,65.50
2022-12-31T14:55:31.533Z,65.30
2022-12-31T14:58:01.642Z,65.60
2022-12-31T15:00:24.758Z,65.60
2022-12-31T15:02:33.981Z,65.10
2022-12-31T15:04:47.876Z,65.10
2022-12-31T15:07:05.912Z,65.40
2022-12-31T15:09:26.460Z,65.20
2022-12-31T15:11:56.482Z,64.80
2022-12-31T15:14:37.217Z,65.00
2022-12-31T15:16:50.811Z,64.60
2022-12-31T15:19:41.532Z,64.90
2022-12-31T15:22:03.554Z,65.20
2022-12-31T15:24:21.998Z,64.90
2022-12-31T15:26:32.254Z,64.50
2022-12-31T15:28:42.767Z,64.40
2022-12-31T15:30:51.701Z,64.40
2022-12-31T15:33:00.557Z,64.50
2022-12-31T15:35:27.771Z,64.60
2022-12-31T15:37:37.396Z,64.50
2022-12-31T15:39:46.012Z,64.10
2022-12-31T15:44:29.058Z,64.20
2022-12-31T15:46:41.864Z,64.40
2022-12-31T15:48:57.801Z,64.60
2022-12-31T15:51:14.247Z,64.70
2022-12-31T15:53:30.346Z,64.80
2022-12-31T15:55:42.127Z,64.80
2022-12-31T15:57:49.767Z,65.00
2022-12-31T16:00:02.269Z,64.90
2022-12-31T16:02:23.684Z,65.20
2022-12-31T16:04:34.099Z,65.20
2022-12-31T16:06:44.871Z,65.20
2022-12-31T16:08:56.553Z,65.30
2022-12-31T16:11:06.059Z,65.20
2022-12-31T16:13:23.411Z,65.20
2022-12-31T16:15:34.652Z,65.30
2022-12-31T16:17:42.893Z,65.40
2022-12-31T16:19:50.195Z,65.50
2022-12-31T16:22:00.583Z,65.70
2022-12-31T16:24:09.751Z,65.60
2022-12-31T16:26:16.792Z,65.80
2022-12-31T16:28:26.420Z,65.80
2022-12-31T16:30:36.852Z,66.10
2022-12-31T16:32:44.119Z,66.30
2022-12-31T16:34:51.200Z,66.30
2022-12-31T16:37:03.094Z,66.20
2022-12-31T16:39:28.898Z,66.30
2022-12-31T16:41:45.933Z,66.50
2022-12-31T16:43:53.921Z,66.30
2022-12-31T16:46:13.515Z,66.50
2022-12-31T16:48:22.627Z,66.70
2022-12-31T16:50:30.181Z,66.70
2022-12-31T16:52:39.956Z,66.90
2022-12-31T16:54:50.412Z,67.10
2022-12-31T16:56:57.443Z,67.10
2022-12-31T16:59:08.258Z,67.30
2022-12-31T17:01:21.009Z,67.50
2022-12-31T17:03:31.379Z,67.60
2022-12-31T17:05:56.540Z,67.80
2022-12-31T17:08:25.532Z,67.80
2022-12-31T17:10:38.334Z,67.90
2022-12-31T17:13:25.373Z,68.00
2022-12-31T17:15:22.548Z,68.20
2022-12-31T17:17:34.137Z,68.10
2022-12-31T17:19:45.967Z,68.20
2022-12-31T17:21:53.258Z,68.20
2022-12-31T17:24:03.988Z,68.80
2022-12-31T17:26:14.137Z,68.80
2022-12-31T17:28:26.321Z,69.10
2022-12-31T17:30:45.127Z,69.30
2022-12-31T17:32:54.918Z,69.20
2022-12-31T17:35:02.050Z,69.30
2022-12-31T17:37:20.649Z,69.40
2022-12-31T17:39:29.215Z,69.30
2022-12-31T17:41:36.292Z,69.30
2022-12-31T17:43:44.496Z,69.40
2022-12-31T17:45:53.833Z,69.40
2022-12-31T17:48:03.111Z,69.50
2022-12-31T17:50:25.107Z,69.50
2022-12-31T17:52:31.301Z,69.80
2022-12-31T17:54:38.171Z,70.30
2022-12-31T17:56:45.664Z,70.00
2022-12-31T17:58:55.351Z,69.90
2022-12-31T18:01:03.321Z,70.40
2022-12-31T18:03:12.092Z,70.50
2022-12-31T18:05:20.027Z,70.50
2022-12-31T18:07:26.893Z,70.80
2022-12-31T18:09:34.027Z,70.90
2022-12-31T18:11:42.024Z,71.00
2022-12-31T18:13:49.613Z,71.20
2022-12-31T18:15:57.273Z,72.00
2022-12-31T18:18:04.540Z,72.30
2022-12-31T18:20:14.285Z,72.70
2022-12-31T18:22:21.784Z,72.80
2022-12-31T18:24:28.578Z,72.80
2022-12-31T18:26:36.392Z,72.90
2022-12-31T18:28:43.316Z,73.30
2022-12-31T18:30:51.879Z,73.10
2022-12-31T18:32:59.011Z,73.30
2022-12-31T18:35:06.397Z,73.40
2022-12-31T18:37:21.681Z,74.10
2022-12-31T18:39:29.362Z,75.00
2022-12-31T18:41:42.483Z,75.70
2022-12-31T18:43:50.028Z,76.70
2022-12-31T18:45:57.216Z,77.30
2022-12-31T18:48:04.237Z,77.60
2022-12-31T18:50:13.052Z,77.90
2022-12-31T18:52:24.278Z,78.10
2022-12-31T18:54:31.767Z,78.10
2022-12-31T18:56:43.282Z,77.90
2022-12-31T18:58:53.911Z,77.90
2022-12-31T19:01:00.915Z,77.50
2022-12-31T19:03:08.605Z,77.60
2022-12-31T19:05:27.035Z,77.80
2022-12-31T19:07:35.952Z,77.90
2022-12-31T19:09:45.572Z,77.80
2022-12-31T19:11:53.183Z,78.40
2022-12-31T19:14:00.156Z,78.40
2022-12-31T19:16:08.683Z,78.60
2022-12-31T19:18:15.651Z,78.70
2022-12-31T19:20:23.085Z,79.00
2022-12-31T19:22:30.009Z,78.90
2022-12-31T19:24:38.984Z,79.30
2022-12-31T19:26:46.011Z,79.40
2022-12-31T19:28:53.861Z,79.70
2022-12-31T19:31:00.846Z,79.90
2022-12-31T19:33:08.169Z,80.30
2022-12-31T19:35:17.050Z,80.50
2022-12-31T19:37:24.283Z,80.30
2022-12-31T19:39:31.200Z,80.30
2022-12-31T19:41:40.072Z,80.40
2022-12-31T19:43:46.998Z,80.30
2022-12-31T19:45:55.156Z,80.70
2022-12-31T19:48:02.488Z,81.20
2022-12-31T19:50:10.589Z,81.60
2022-12-31T19:52:17.567Z,82.10
2022-12-31T19:54:24.753Z,82.50
2022-12-31T19:56:31.727Z,82.30
2022-12-31T19:58:40.700Z,82.60
2022-12-31T20:00:54.528Z,82.50
2022-12-31T20:03:04.195Z,82.90
2022-12-31T20:05:12.231Z,82.70
2022-12-31T20:07:23.698Z,83.00
2022-12-31T20:09:33.974Z,83.30
2022-12-31T20:11:41.206Z,83.70
2022-12-31T20:13:50.435Z,83.80
2022-12-31T20:15:57.658Z,83.50
2022-12-31T20:18:04.737Z,83.40
2022-12-31T20:20:12.843Z,83.10
2022-12-31T20:22:19.867Z,82.90
2022-12-31T20:24:27.053Z,82.90
2022-12-31T20:26:33.975Z,82.90
2022-12-31T20:28:41.475Z,82.50
2022-12-31T20:30:50.190Z,82.50
2022-12-31T20:32:57.318Z,82.20
2022-12-31T20:35:04.902Z,82.30
2022-12-31T20:37:12.239Z,82.30
2022-12-31T20:39:19.318Z,81.90
2022-12-31T20:41:27.336Z,82.20
2022-12-31T20:43:34.759Z,82.60
2022-12-31T20:45:45.120Z,82.90
2022-12-31T20:47:54.034Z,83.10
2022-12-31T20:50:11.513Z,82.90
2022-12-31T20:52:19.353Z,82.90
2022-12-31T20:54:26.485Z,82.70
2022-12-31T20:56:35.817Z,82.80
2022-12-31T20:58:42.694Z,82.80
2022-12-31T21:00:52.176Z,82.90
2022-12-31T21:03:10.466Z,82.50
2022-12-31T21:05:26.276Z,82.60
2022-12-31T21:07:33.132Z,82.80
2022-12-31T21:09:40.413Z,82.70
2022-12-31T21:12:04.081Z,82.90
2022-12-31T21:14:11.415Z,82.80
2022-12-31T21:16:18.379Z,82.70
2022-12-31T21:18:27.365Z,82.60
2022-12-31T21:20:34.289Z,82.80
2022-12-31T21:22:41.642Z,82.80
2022-12-31T21:24:48.500Z,82.90
2022-12-31T21:26:57.682Z,83.00
2022-12-31T21:29:04.764Z,83.10
2022-12-31T21:31:14.244Z,83.20
2022-12-31T21:33:21.218Z,83.10
2022-12-31T21:35:53.173Z,83.20
2022-12-31T21:37:59.303Z,83.30
2022-12-31T21:40:08.517Z,83.20
2022-12-31T21:42:15.441Z,83.30
2022-12-31T21:44:23.622Z,83.30
2022-12-31T21:46:30.636Z,83.40
2022-12-31T21:48:37.956Z,83.70
2022-12-31T21:50:47.036Z,83.80
2022-12-31T21:52:54.013Z,84.40
2022-12-31T21:55:18.660Z,84.30
2022-12-31T21:57:25.886Z,84.30
2022-12-31T22:00:09.064Z,84.30
2022-12-31T22:02:33.029Z,84.30
2022-12-31T22:07:08.955Z,84.40
2022-12-31T22:09:16.033Z,84.50
2022-12-31T22:11:24.709Z,84.40
2022-12-31T22:13:31.932Z,84.80
2022-12-31T22:15:38.989Z,85.90
2022-12-31T22:17:46.202Z,86.30
2022-12-31T22:20:25.118Z,86.20
2022-12-31T22:22:22.063Z,86.60
2022-12-31T22:24:29.192Z,86.10
2022-12-31T22:26:36.882Z,86.20
2022-12-31T22:28:47.047Z,86.00
2022-12-31T22:30:54.308Z,86.30
2022-12-31T22:33:01.864Z,86.60
2022-12-31T22:35:09.664Z,86.50
2022-12-31T22:37:46.495Z,86.20
2022-12-31T22:39:45.529Z,86.40
2022-12-31T22:41:52.562Z,86.10
2022-12-31T22:44:04.164Z,86.00
2022-12-31T22:46:13.472Z,86.30
2022-12-31T22:48:20.548Z,86.00
2022-12-31T22:50:27.945Z,86.20
2022-12-31T22:52:35.321Z,85.90
2022-12-31T22:54:44.295Z,85.90
2022-12-31T22:56:51.272Z,85.90
2022-12-31T22:58:58.533Z,85.70
2022-12-31T23:01:08.853Z,85.70
2022-12-31T23:03:16.265Z,85.80
2022-12-31T23:05:23.125Z,85.70
2022-12-31T23:07:30.351Z,85.80
2022-12-31T23:09:58.935Z,85.40
2022-12-31T23:12:09.624Z,85.60
2022-12-31T23:14:36.751Z,85.80
2022-12-31T23:16:59.906Z,85.90
2022-12-31T23:19:43.847Z,85.80
2022-12-31T23:22:07.340Z,85.60
2022-12-31T23:24:20.361Z,85.30
2022-12-31T23:26:32.169Z,85.60
2022-12-31T23:28:42.885Z,85.60
2022-12-31T23:30:49.809Z,85.40
2022-12-31T23:32:57.101Z,85.40
2022-12-31T23:35:09.647Z,85.30
2022-12-31T23:37:17.498Z,85.20
2022-12-31T23:39:24.486Z,84.90
2022-12-31T23:41:31.711Z,85.00
2022-12-31T23:43:40.328Z,85.50
2022-12-31T23:45:47.400Z,86.30
2022-12-31T23:47:54.276Z,86.60
2022-12-31T23:50:01.644Z,86.60
2022-12-31T23:52:08.637Z,86.80
2022-12-31T23:54:15.993Z,86.70
2022-12-31T23:56:24.219Z,86.90
2022-12-31T23:58:31.520Z,86.90
